This is the latest recevied weather packets stored in our database for station/object KM4KBD. If no packets are shown the sender has not sent any weather packets the latest 1 day(s).
| Time | Temp. | Humidity | Pressure | Rain* | Wind** | Luminosity | Snow |
|---|---|---|---|---|---|---|---|
| 1778051346 | 15.56° C | 94% | 1011.4 hPa | 0 mm | - | 0 W/m² | - |
| 1778051043 | 15° C | 93% | 1011.8 hPa | 0 mm | - | 0 W/m² | - |
| 1778050438 | 15.56° C | 93% | 1011.7 hPa | 1.27 mm | - | 0 W/m² | - |
| 1778049830 | 15.56° C | 91% | 1011.8 hPa | 1.78 mm | - | 0 W/m² | - |
| 1778049225 | 15.56° C | 88% | 1012 hPa | 0 mm | - | 0 W/m² | - |
| 1778048923 | 15.56° C | 89% | 1012 hPa | 0 mm | - | 0 W/m² | - |
| 1778047711 | 15° C | 92% | 1012.2 hPa | 1.27 mm | - | 0 W/m² | - |
| 1778047105 | 15.56° C | 90% | 1012.7 hPa | 6.1 mm | - | 0 W/m² | - |
| 1778046803 | 16.11° C | 86% | 1012.8 hPa | 1.27 mm | - | 0 W/m² | - |
| 1778046500 | 16.67° C | 82% | 1012.9 hPa | 0 mm | - | 0 W/m² | - |
| 1778046196 | 16.67° C | 81% | 1012.4 hPa | 0 mm | - | 0 W/m² | - |
| 1778045893 | 16.67° C | 80% | 1012.5 hPa | 0 mm | - | 0 W/m² | - |
| 1778045592 | 16.67° C | 80% | 1012.7 hPa | 0 mm | - | 0 W/m² | - |
| 1778045289 | 16.67° C | 80% | 1012.8 hPa | 0 mm | - | 0 W/m² | - |
| 1778044988 | 16.67° C | 79% | 1013 hPa | 0 mm | - | 0 W/m² | - |
| 1778044685 | 16.67° C | 79% | 1013.2 hPa | 0 mm | - | 0 W/m² | - |
| 1778044381 | 16.67° C | 79% | 1012.8 hPa | 0 mm | - | 0 W/m² | - |
| 1778044079 | 16.67° C | 79% | 1013.2 hPa | 0 mm | - | 0 W/m² | - |
| 1778043776 | 16.67° C | 80% | 1013.2 hPa | 0 mm | - | 0 W/m² | - |
| 1778043472 | 16.67° C | 79% | 1013.1 hPa | 0 mm | - | 0 W/m² | - |
| 1778042866 | 16.67° C | 80% | 1013.2 hPa | 0 mm | - | 0 W/m² | - |
| 1778042564 | 16.11° C | 81% | 1013.1 hPa | 0 mm | - | 0 W/m² | - |
| 1778042261 | 16.11° C | 81% | 1013.2 hPa | 0 mm | - | 0 W/m² | - |
| 1778041958 | 16.11° C | 82% | 1013.2 hPa | 0 mm | - | 0 W/m² | - |
| 1778041657 | 15.56° C | 83% | 1013 hPa | 0 mm | - | 0 W/m² | - |
* Rain latest hour (hover to see other rain measurements)
** Current wind speed in m/s (hover to see current wind gust speed)